GLO1784 SBBR-SBEG
Flight info
| Callsign | GLO1784 |
|---|---|
| Flight time | 2h 36m |
| Altitude | 38000 |
| Route | ESBU6A UGUGA UM409 MAMGI MNS |
| Aircraft | B738/M-SDE2E3FGHIRWXY/LB1 |
Departure
| Time | 2026-04-25 00:34 |
|---|---|
| Airport | Presidente Juscelino Kubitschek International Airport (SBBR) |
Arrival
| Time | 2026-04-25 03:10 |
|---|---|
| Airport | Eduardo Gomes International Airport (SBEG) |
| Time | Latitude | Longitude | Altitude | Speed | Heading |
|---|---|---|---|---|---|
| 2026-04-24 23:41 | -15.86711 | -47.91972 | 3471 ft | 0 kts | 182° |
| 2026-04-25 00:25 | -15.86697 | -47.91972 | 3470 ft | 4 kts | 182° |
| 2026-04-25 00:25 | -15.86670 | -47.91971 | 3470 ft | 4 kts | 181° |
| 2026-04-25 00:25 | -15.86644 | -47.91970 | 3470 ft | 4 kts | 196° |
| 2026-04-25 00:25 | -15.86624 | -47.91956 | 3469 ft | 4 kts | 248° |
| 2026-04-25 00:26 | -15.86620 | -47.91938 | 3470 ft | 1 kts | 266° |
| 2026-04-25 00:26 | -15.86620 | -47.91935 | 3470 ft | 0 kts | 266° |
| 2026-04-25 00:28 | -15.86621 | -47.91956 | 3468 ft | 5 kts | 266° |
| 2026-04-25 00:29 | -15.86624 | -47.92004 | 3471 ft | 8 kts | 266° |
| 2026-04-25 00:29 | -15.86629 | -47.92075 | 3471 ft | 12 kts | 266° |
| 2026-04-25 00:29 | -15.86633 | -47.92156 | 3471 ft | 11 kts | 273° |
| 2026-04-25 00:29 | -15.86602 | -47.92235 | 3469 ft | 13 kts | 296° |
| 2026-04-25 00:30 | -15.86570 | -47.92297 | 3469 ft | 8 kts | 308° |
| 2026-04-25 00:30 | -15.86534 | -47.92356 | 3468 ft | 11 kts | 288° |
| 2026-04-25 00:30 | -15.86530 | -47.92445 | 3467 ft | 13 kts | 266° |
| 2026-04-25 00:30 | -15.86537 | -47.92550 | 3465 ft | 16 kts | 265° |
| 2026-04-25 00:31 | -15.86544 | -47.92660 | 3463 ft | 15 kts | 266° |
| 2026-04-25 00:31 | -15.86537 | -47.92750 | 3461 ft | 12 kts | 310° |
| 2026-04-25 00:31 | -15.86482 | -47.92767 | 3460 ft | 2 kts | 356° |
| 2026-04-25 00:31 | -15.86481 | -47.92767 | 3460 ft | 0 kts | 356° |
| 2026-04-25 00:32 | -15.86480 | -47.92767 | 3460 ft | 1 kts | 356° |
| 2026-04-25 00:32 | -15.86456 | -47.92768 | 3460 ft | 6 kts | 356° |
| 2026-04-25 00:32 | -15.86397 | -47.92748 | 3459 ft | 11 kts | 36° |
| 2026-04-25 00:33 | -15.86358 | -47.92732 | 3459 ft | 5 kts | 62° |
| 2026-04-25 00:33 | -15.86355 | -47.92708 | 3459 ft | 0 kts | 87° |
| 2026-04-25 00:33 | -15.86345 | -47.92560 | 3461 ft | 53 kts | 86° |
| 2026-04-25 00:33 | -15.86305 | -47.91938 | 3465 ft | 118 kts | 86° |
| 2026-04-25 00:34 | -15.86243 | -47.90906 | 3486 ft | 169 kts | 89° |
| 2026-04-25 00:34 | -15.86181 | -47.89630 | 4010 ft | 180 kts | 87° |
| 2026-04-25 00:34 | -15.86090 | -47.88352 | 4862 ft | 177 kts | 86° |
| 2026-04-25 00:34 | -15.85999 | -47.87002 | 5278 ft | 201 kts | 86° |
| 2026-04-25 00:35 | -15.85900 | -47.85459 | 5459 ft | 226 kts | 86° |
| 2026-04-25 00:35 | -15.85791 | -47.83739 | 5648 ft | 252 kts | 86° |
| 2026-04-25 00:35 | -15.85674 | -47.81853 | 5898 ft | 267 kts | 86° |
| 2026-04-25 00:35 | -15.85555 | -47.79910 | 6170 ft | 271 kts | 86° |
| 2026-04-25 00:36 | -15.85321 | -47.77965 | 6486 ft | 273 kts | 71° |
| 2026-04-25 00:36 | -15.84356 | -47.76316 | 6842 ft | 274 kts | 45° |
| 2026-04-25 00:36 | -15.82785 | -47.75207 | 7269 ft | 277 kts | 22° |
| 2026-04-25 00:36 | -15.80892 | -47.74877 | 7706 ft | 279 kts | 356° |
| 2026-04-25 00:37 | -15.79012 | -47.75391 | 8149 ft | 282 kts | 336° |
| 2026-04-25 00:37 | -15.77229 | -47.76262 | 8592 ft | 285 kts | 334° |
| 2026-04-25 00:37 | -15.75427 | -47.77170 | 8964 ft | 290 kts | 334° |
| 2026-04-25 00:37 | -15.73601 | -47.78077 | 9337 ft | 292 kts | 334° |
| 2026-04-25 00:38 | -15.71762 | -47.78979 | 9767 ft | 291 kts | 335° |
| 2026-04-25 00:38 | -15.69938 | -47.79883 | 10187 ft | 290 kts | 330° |
| 2026-04-25 00:38 | -15.68449 | -47.81254 | 10624 ft | 288 kts | 302° |
| 2026-04-25 00:38 | -15.67677 | -47.83212 | 10845 ft | 307 kts | 279° |
| 2026-04-25 00:39 | -15.67533 | -47.85469 | 11044 ft | 330 kts | 271° |
| 2026-04-25 00:39 | -15.67530 | -47.87921 | 11343 ft | 347 kts | 270° |
| 2026-04-25 00:39 | -15.67557 | -47.90450 | 11907 ft | 354 kts | 270° |
| 2026-04-25 00:39 | -15.67583 | -47.93015 | 12585 ft | 356 kts | 270° |
| 2026-04-25 00:40 | -15.67598 | -47.95597 | 13273 ft | 359 kts | 270° |
| 2026-04-25 00:40 | -15.67604 | -47.98197 | 13909 ft | 363 kts | 271° |
| 2026-04-25 00:40 | -15.67602 | -48.00826 | 14435 ft | 367 kts | 271° |
| 2026-04-25 00:40 | -15.67598 | -48.03490 | 14934 ft | 371 kts | 271° |
| 2026-04-25 00:41 | -15.67592 | -48.06184 | 15439 ft | 376 kts | 271° |
| 2026-04-25 00:41 | -15.67584 | -48.08911 | 15929 ft | 380 kts | 271° |
| 2026-04-25 00:41 | -15.67575 | -48.11632 | 16385 ft | 385 kts | 271° |
| 2026-04-25 00:41 | -15.67566 | -48.14423 | 16846 ft | 390 kts | 270° |
| 2026-04-25 00:42 | -15.67557 | -48.17245 | 17337 ft | 393 kts | 270° |
| 2026-04-25 00:42 | -15.67548 | -48.20097 | 17787 ft | 398 kts | 270° |
| 2026-04-25 00:42 | -15.67540 | -48.22982 | 18236 ft | 402 kts | 270° |
| 2026-04-25 00:42 | -15.67532 | -48.25892 | 18644 ft | 405 kts | 270° |
| 2026-04-25 00:43 | -15.67524 | -48.28830 | 19055 ft | 408 kts | 270° |
| 2026-04-25 00:43 | -15.67515 | -48.31781 | 19482 ft | 411 kts | 270° |
| 2026-04-25 00:43 | -15.67506 | -48.34717 | 19888 ft | 413 kts | 270° |
| 2026-04-25 00:43 | -15.67369 | -48.37701 | 20263 ft | 416 kts | 282° |
| 2026-04-25 00:44 | -15.66355 | -48.40502 | 20629 ft | 417 kts | 302° |
| 2026-04-25 00:44 | -15.64566 | -48.42850 | 21058 ft | 416 kts | 319° |
| 2026-04-25 00:44 | -15.62257 | -48.44644 | 21481 ft | 416 kts | 327° |
| 2026-04-25 00:44 | -15.59847 | -48.46323 | 21849 ft | 419 kts | 328° |
| 2026-04-25 00:45 | -15.57399 | -48.47991 | 22184 ft | 423 kts | 328° |
| 2026-04-25 00:45 | -15.54933 | -48.49668 | 22549 ft | 425 kts | 328° |
| 2026-04-25 00:45 | -15.52457 | -48.51363 | 22934 ft | 427 kts | 328° |
| 2026-04-25 00:45 | -15.50008 | -48.53053 | 23299 ft | 430 kts | 328° |
| 2026-04-25 00:46 | -15.47519 | -48.54781 | 23634 ft | 432 kts | 328° |
| 2026-04-25 00:46 | -15.45014 | -48.56528 | 23923 ft | 435 kts | 328° |
| 2026-04-25 00:46 | -15.39973 | -48.60052 | 24494 ft | 439 kts | 328° |
| 2026-04-25 00:47 | -15.37438 | -48.61825 | 24782 ft | 441 kts | 328° |
| 2026-04-25 00:47 | -15.34889 | -48.63608 | 25065 ft | 443 kts | 328° |
| 2026-04-25 00:47 | -15.32323 | -48.65401 | 25355 ft | 445 kts | 328° |
| 2026-04-25 00:47 | -15.29753 | -48.67198 | 25651 ft | 447 kts | 328° |
| 2026-04-25 00:48 | -15.27205 | -48.68977 | 25952 ft | 448 kts | 328° |
| 2026-04-25 00:48 | -15.24611 | -48.70788 | 26238 ft | 450 kts | 328° |
| 2026-04-25 00:48 | -15.22007 | -48.72606 | 26496 ft | 453 kts | 328° |
| 2026-04-25 00:48 | -15.19390 | -48.74431 | 26763 ft | 455 kts | 328° |
| 2026-04-25 00:49 | -15.16761 | -48.76265 | 27028 ft | 457 kts | 328° |
| 2026-04-25 00:49 | -15.14116 | -48.78109 | 27300 ft | 459 kts | 328° |
| 2026-04-25 00:49 | -15.11461 | -48.79960 | 27540 ft | 462 kts | 328° |
| 2026-04-25 00:49 | -15.08790 | -48.81821 | 27779 ft | 464 kts | 328° |
| 2026-04-25 00:50 | -15.06145 | -48.83664 | 28021 ft | 466 kts | 328° |
| 2026-04-25 00:50 | -15.03449 | -48.85541 | 28255 ft | 468 kts | 328° |
| 2026-04-25 00:50 | -15.00739 | -48.87428 | 28489 ft | 470 kts | 328° |
| 2026-04-25 00:50 | -14.98021 | -48.89320 | 28737 ft | 472 kts | 328° |
| 2026-04-25 00:51 | -14.95290 | -48.91220 | 28966 ft | 474 kts | 328° |
| 2026-04-25 00:51 | -14.92547 | -48.93128 | 29200 ft | 476 kts | 328° |
| 2026-04-25 00:51 | -14.89791 | -48.95044 | 29455 ft | 477 kts | 328° |
| 2026-04-25 00:51 | -14.87034 | -48.96961 | 29689 ft | 479 kts | 328° |
| 2026-04-25 00:52 | -14.84263 | -48.98887 | 29920 ft | 481 kts | 328° |
| 2026-04-25 00:52 | -14.81518 | -49.00793 | 30124 ft | 482 kts | 328° |
| 2026-04-25 00:52 | -14.78730 | -49.02729 | 30311 ft | 484 kts | 328° |
| 2026-04-25 00:52 | -14.75933 | -49.04671 | 30522 ft | 485 kts | 328° |
| 2026-04-25 00:53 | -14.73134 | -49.06614 | 30767 ft | 485 kts | 328° |
| 2026-04-25 00:53 | -14.70341 | -49.08553 | 31060 ft | 483 kts | 328° |
| 2026-04-25 00:53 | -14.67553 | -49.10487 | 31372 ft | 482 kts | 328° |
| 2026-04-25 00:53 | -14.64778 | -49.12412 | 31709 ft | 480 kts | 329° |
| 2026-04-25 00:54 | -14.62010 | -49.14331 | 32040 ft | 478 kts | 329° |
| 2026-04-25 00:54 | -14.59254 | -49.16240 | 32327 ft | 477 kts | 329° |
| 2026-04-25 00:54 | -14.56496 | -49.18151 | 32598 ft | 477 kts | 329° |
| 2026-04-25 00:54 | -14.53784 | -49.20029 | 32896 ft | 476 kts | 329° |
| 2026-04-25 00:55 | -14.51038 | -49.21930 | 33219 ft | 475 kts | 329° |
| 2026-04-25 00:55 | -14.48297 | -49.23827 | 33529 ft | 474 kts | 329° |
| 2026-04-25 00:55 | -14.45566 | -49.25717 | 33824 ft | 473 kts | 329° |
| 2026-04-25 00:55 | -14.42834 | -49.27607 | 34100 ft | 472 kts | 329° |
| 2026-04-25 00:56 | -14.40107 | -49.29492 | 34356 ft | 471 kts | 329° |
| 2026-04-25 00:56 | -14.37387 | -49.31373 | 34591 ft | 471 kts | 329° |
| 2026-04-25 00:56 | -14.34665 | -49.33253 | 34782 ft | 471 kts | 329° |
| 2026-04-25 00:56 | -14.31940 | -49.35135 | 34999 ft | 471 kts | 329° |
| 2026-04-25 00:57 | -14.29257 | -49.36989 | 35259 ft | 470 kts | 329° |
| 2026-04-25 00:57 | -14.26546 | -49.38861 | 35524 ft | 468 kts | 329° |
| 2026-04-25 00:57 | -14.23843 | -49.40727 | 35743 ft | 468 kts | 329° |
| 2026-04-25 00:57 | -14.21137 | -49.42595 | 35953 ft | 468 kts | 329° |
| 2026-04-25 00:58 | -14.18433 | -49.44460 | 36184 ft | 467 kts | 329° |
| 2026-04-25 00:58 | -14.15735 | -49.46321 | 36442 ft | 466 kts | 329° |
| 2026-04-25 00:58 | -14.13042 | -49.48178 | 36657 ft | 466 kts | 329° |
| 2026-04-25 00:58 | -14.10348 | -49.50036 | 36836 ft | 466 kts | 329° |
| 2026-04-25 00:59 | -14.07660 | -49.51888 | 37045 ft | 465 kts | 329° |
| 2026-04-25 00:59 | -14.04972 | -49.53740 | 37257 ft | 465 kts | 329° |
| 2026-04-25 00:59 | -14.02335 | -49.55584 | 37427 ft | 466 kts | 326° |
| 2026-04-25 00:59 | -13.99782 | -49.57653 | 37597 ft | 467 kts | 322° |
| 2026-04-25 01:00 | -13.97329 | -49.59850 | 37807 ft | 467 kts | 321° |
| 2026-04-25 01:00 | -13.94917 | -49.62091 | 37973 ft | 467 kts | 321° |
| 2026-04-25 01:00 | -13.92499 | -49.64343 | 37954 ft | 471 kts | 321° |
| 2026-04-25 01:01 | -13.87594 | -49.68834 | 37965 ft | 472 kts | 322° |
| 2026-04-25 01:01 | -13.82679 | -49.73245 | 37963 ft | 471 kts | 322° |
| 2026-04-25 01:02 | -13.77722 | -49.77660 | 37958 ft | 471 kts | 322° |
| 2026-04-25 01:02 | -13.72767 | -49.82068 | 37965 ft | 471 kts | 322° |
| 2026-04-25 01:03 | -13.67819 | -49.86472 | 37961 ft | 470 kts | 322° |
| 2026-04-25 01:03 | -13.62910 | -49.90841 | 37961 ft | 469 kts | 322° |
| 2026-04-25 01:04 | -13.57973 | -49.95232 | 37957 ft | 469 kts | 322° |
| 2026-04-25 01:04 | -13.53043 | -49.99614 | 37957 ft | 468 kts | 322° |
| 2026-04-25 01:05 | -13.48117 | -50.03990 | 37970 ft | 468 kts | 322° |
| 2026-04-25 01:05 | -13.43226 | -50.08332 | 37954 ft | 467 kts | 322° |
| 2026-04-25 01:06 | -13.38314 | -50.12692 | 37962 ft | 467 kts | 322° |
| 2026-04-25 01:06 | -13.33403 | -50.17047 | 37956 ft | 466 kts | 322° |
| 2026-04-25 01:07 | -13.28500 | -50.21394 | 37953 ft | 466 kts | 322° |
| 2026-04-25 01:07 | -13.23635 | -50.25705 | 37965 ft | 465 kts | 322° |
| 2026-04-25 01:08 | -13.18742 | -50.30038 | 37948 ft | 464 kts | 322° |
| 2026-04-25 01:08 | -13.13862 | -50.34356 | 37949 ft | 463 kts | 322° |
| 2026-04-25 01:09 | -13.08996 | -50.38662 | 37954 ft | 461 kts | 322° |
| 2026-04-25 01:09 | -13.04178 | -50.42924 | 37960 ft | 460 kts | 322° |
| 2026-04-25 01:10 | -12.99334 | -50.47206 | 37964 ft | 459 kts | 321° |
| 2026-04-25 01:10 | -12.94501 | -50.51477 | 37952 ft | 458 kts | 321° |
| 2026-04-25 01:11 | -12.89687 | -50.55729 | 37954 ft | 456 kts | 321° |
| 2026-04-25 01:11 | -12.84885 | -50.59968 | 37954 ft | 455 kts | 321° |
| 2026-04-25 01:12 | -12.80128 | -50.64165 | 37955 ft | 454 kts | 321° |
| 2026-04-25 01:12 | -12.75347 | -50.68381 | 37968 ft | 453 kts | 321° |
| 2026-04-25 01:13 | -12.70575 | -50.72587 | 37949 ft | 452 kts | 321° |
| 2026-04-25 01:13 | -12.65821 | -50.76775 | 37954 ft | 450 kts | 321° |
| 2026-04-25 01:14 | -12.61112 | -50.80921 | 37960 ft | 449 kts | 321° |
| 2026-04-25 01:14 | -12.56384 | -50.85082 | 37956 ft | 448 kts | 321° |
| 2026-04-25 01:15 | -12.51667 | -50.89231 | 37965 ft | 447 kts | 321° |
| 2026-04-25 01:15 | -12.46958 | -50.93372 | 37961 ft | 446 kts | 321° |
| 2026-04-25 01:16 | -12.42246 | -50.97512 | 37966 ft | 446 kts | 321° |
| 2026-04-25 01:16 | -12.37570 | -51.01620 | 37965 ft | 446 kts | 321° |
| 2026-04-25 01:17 | -12.32854 | -51.05760 | 37963 ft | 447 kts | 321° |
| 2026-04-25 01:17 | -12.28133 | -51.09903 | 37974 ft | 448 kts | 320° |
| 2026-04-25 01:18 | -12.23401 | -51.14055 | 37973 ft | 449 kts | 320° |
| 2026-04-25 01:18 | -12.18686 | -51.18187 | 37971 ft | 450 kts | 320° |
| 2026-04-25 01:19 | -12.13930 | -51.22356 | 37975 ft | 451 kts | 320° |
| 2026-04-25 01:19 | -12.09158 | -51.26537 | 37973 ft | 452 kts | 320° |
| 2026-04-25 01:20 | -12.04380 | -51.30723 | 37973 ft | 453 kts | 320° |
| 2026-04-25 01:20 | -11.99591 | -51.34917 | 37972 ft | 453 kts | 321° |
| 2026-04-25 01:21 | -11.94833 | -51.39081 | 37970 ft | 453 kts | 321° |
| 2026-04-25 01:21 | -11.90049 | -51.43266 | 37972 ft | 453 kts | 321° |
| 2026-04-25 01:22 | -11.85271 | -51.47443 | 37973 ft | 452 kts | 321° |
| 2026-04-25 01:22 | -11.80506 | -51.51609 | 37977 ft | 450 kts | 321° |
| 2026-04-25 01:23 | -11.75785 | -51.55732 | 37977 ft | 449 kts | 321° |
| 2026-04-25 01:23 | -11.71036 | -51.59879 | 37979 ft | 449 kts | 320° |
| 2026-04-25 01:24 | -11.66299 | -51.64013 | 37982 ft | 448 kts | 320° |
| 2026-04-25 01:24 | -11.61567 | -51.68141 | 37984 ft | 447 kts | 320° |
| 2026-04-25 01:25 | -11.56868 | -51.72239 | 37983 ft | 447 kts | 320° |
| 2026-04-25 01:25 | -11.52137 | -51.76362 | 37977 ft | 447 kts | 321° |
| 2026-04-25 01:26 | -11.47405 | -51.80484 | 37980 ft | 448 kts | 321° |
| 2026-04-25 01:26 | -11.42669 | -51.84608 | 37978 ft | 448 kts | 320° |
| 2026-04-25 01:27 | -11.37928 | -51.88735 | 37982 ft | 448 kts | 320° |
| 2026-04-25 01:27 | -11.33211 | -51.92840 | 37980 ft | 449 kts | 320° |
| 2026-04-25 01:28 | -11.26072 | -51.99030 | 37977 ft | 450 kts | 321° |
| 2026-04-25 01:28 | -11.21261 | -52.03108 | 37987 ft | 450 kts | 321° |
| 2026-04-25 01:29 | -11.16469 | -52.07154 | 37983 ft | 451 kts | 321° |
| 2026-04-25 01:29 | -11.11643 | -52.11237 | 37983 ft | 451 kts | 321° |
| 2026-04-25 01:30 | -11.06820 | -52.15322 | 37984 ft | 451 kts | 321° |
| 2026-04-25 01:30 | -11.01994 | -52.19410 | 37983 ft | 451 kts | 321° |
| 2026-04-25 01:31 | -10.97163 | -52.23500 | 37983 ft | 451 kts | 321° |
| 2026-04-25 01:31 | -10.92369 | -52.27557 | 37984 ft | 451 kts | 321° |
| 2026-04-25 01:32 | -10.87540 | -52.31641 | 37986 ft | 451 kts | 321° |
| 2026-04-25 01:32 | -10.82715 | -52.35722 | 37984 ft | 451 kts | 321° |
| 2026-04-25 01:33 | -10.77891 | -52.39798 | 37985 ft | 451 kts | 321° |
| 2026-04-25 01:33 | -10.73101 | -52.43845 | 37976 ft | 451 kts | 321° |
| 2026-04-25 01:34 | -10.68281 | -52.47915 | 37985 ft | 450 kts | 321° |
| 2026-04-25 01:34 | -10.63459 | -52.51985 | 37986 ft | 451 kts | 321° |
| 2026-04-25 01:35 | -10.58635 | -52.56055 | 37993 ft | 451 kts | 321° |
| 2026-04-25 01:35 | -10.53842 | -52.60098 | 37988 ft | 451 kts | 321° |
| 2026-04-25 01:36 | -10.49014 | -52.64168 | 37990 ft | 451 kts | 322° |
| 2026-04-25 01:36 | -10.44175 | -52.68245 | 37989 ft | 452 kts | 322° |
| 2026-04-25 01:37 | -10.39335 | -52.72321 | 37990 ft | 452 kts | 322° |
| 2026-04-25 01:37 | -10.34523 | -52.76373 | 37990 ft | 453 kts | 322° |
| 2026-04-25 01:38 | -10.29674 | -52.80454 | 37993 ft | 453 kts | 322° |
| 2026-04-25 01:38 | -10.25638 | -52.83849 | 37987 ft | 453 kts | 322° |
| 2026-04-25 01:39 | -10.20784 | -52.87932 | 37992 ft | 453 kts | 322° |
| 2026-04-25 01:39 | -10.15925 | -52.92016 | 37993 ft | 453 kts | 322° |
| 2026-04-25 01:40 | -10.11063 | -52.96103 | 37990 ft | 453 kts | 322° |
| 2026-04-25 01:40 | -10.05417 | -53.00845 | 37989 ft | 453 kts | 322° |
| 2026-04-25 01:41 | -10.01380 | -53.04235 | 37999 ft | 453 kts | 322° |
| 2026-04-25 01:41 | -9.96525 | -53.08310 | 37993 ft | 453 kts | 322° |
| 2026-04-25 01:42 | -9.91670 | -53.12384 | 37999 ft | 453 kts | 322° |
| 2026-04-25 01:42 | -9.86955 | -53.16567 | 37999 ft | 454 kts | 319° |
| 2026-04-25 01:43 | -9.82338 | -53.20933 | 37996 ft | 454 kts | 319° |
| 2026-04-25 01:43 | -9.77708 | -53.25299 | 37999 ft | 455 kts | 319° |
| 2026-04-25 01:44 | -9.73052 | -53.29647 | 38002 ft | 455 kts | 319° |
| 2026-04-25 01:44 | -9.68423 | -53.33956 | 38006 ft | 455 kts | 319° |
| 2026-04-25 01:45 | -9.63760 | -53.38296 | 38001 ft | 455 kts | 319° |
| 2026-04-25 01:45 | -9.59094 | -53.42639 | 38002 ft | 455 kts | 319° |
| 2026-04-25 01:46 | -9.54432 | -53.46975 | 38001 ft | 455 kts | 319° |
| 2026-04-25 01:46 | -9.49802 | -53.51270 | 38002 ft | 454 kts | 319° |
| 2026-04-25 01:47 | -9.45139 | -53.55589 | 38003 ft | 454 kts | 319° |
| 2026-04-25 01:47 | -9.40481 | -53.59903 | 38003 ft | 454 kts | 319° |
| 2026-04-25 01:48 | -9.35828 | -53.64212 | 38005 ft | 453 kts | 319° |
| 2026-04-25 01:48 | -9.31201 | -53.68496 | 38005 ft | 453 kts | 319° |
| 2026-04-25 01:49 | -9.26552 | -53.72800 | 38004 ft | 453 kts | 319° |
| 2026-04-25 01:49 | -9.21903 | -53.77101 | 38014 ft | 452 kts | 319° |
| 2026-04-25 01:50 | -9.17259 | -53.81397 | 38008 ft | 452 kts | 319° |
| 2026-04-25 01:50 | -9.12652 | -53.85656 | 37996 ft | 452 kts | 319° |
| 2026-04-25 01:51 | -9.08013 | -53.89944 | 38006 ft | 451 kts | 319° |
| 2026-04-25 01:51 | -9.03379 | -53.94225 | 38007 ft | 451 kts | 319° |
| 2026-04-25 01:52 | -8.98743 | -53.98507 | 38009 ft | 452 kts | 319° |
| 2026-04-25 01:52 | -8.94100 | -54.02793 | 38005 ft | 452 kts | 319° |
| 2026-04-25 01:53 | -8.89480 | -54.07057 | 38021 ft | 453 kts | 319° |
| 2026-04-25 01:53 | -8.84812 | -54.11363 | 38017 ft | 455 kts | 319° |
| 2026-04-25 01:54 | -8.80132 | -54.15680 | 38015 ft | 456 kts | 319° |
| 2026-04-25 01:54 | -8.75436 | -54.20009 | 38015 ft | 457 kts | 319° |
| 2026-04-25 01:55 | -8.70758 | -54.24320 | 38017 ft | 459 kts | 319° |
| 2026-04-25 01:55 | -8.66041 | -54.28666 | 38020 ft | 459 kts | 319° |
| 2026-04-25 01:56 | -8.61322 | -54.33012 | 38019 ft | 459 kts | 319° |
| 2026-04-25 01:56 | -8.56603 | -54.37357 | 38010 ft | 459 kts | 319° |
| 2026-04-25 01:57 | -8.49560 | -54.43837 | 38018 ft | 458 kts | 319° |
| 2026-04-25 01:58 | -8.44847 | -54.48173 | 38014 ft | 458 kts | 319° |
| 2026-04-25 01:58 | -8.40129 | -54.52510 | 38016 ft | 458 kts | 319° |
| 2026-04-25 01:59 | -8.35418 | -54.56841 | 38013 ft | 458 kts | 319° |
| 2026-04-25 01:59 | -8.30733 | -54.61146 | 38006 ft | 459 kts | 319° |
| 2026-04-25 02:00 | -8.26014 | -54.65480 | 38014 ft | 459 kts | 319° |
| 2026-04-25 02:00 | -8.21290 | -54.69818 | 38015 ft | 459 kts | 319° |
| 2026-04-25 02:01 | -8.16560 | -54.74160 | 38015 ft | 460 kts | 319° |
| 2026-04-25 02:01 | -8.11860 | -54.78472 | 38014 ft | 460 kts | 319° |
| 2026-04-25 02:02 | -8.07121 | -54.82819 | 38005 ft | 460 kts | 319° |
| 2026-04-25 02:02 | -8.02384 | -54.87164 | 38004 ft | 460 kts | 319° |
| 2026-04-25 02:03 | -7.97645 | -54.91508 | 38009 ft | 460 kts | 319° |
| 2026-04-25 02:03 | -7.92934 | -54.95826 | 38008 ft | 460 kts | 319° |
| 2026-04-25 02:04 | -7.88190 | -55.00171 | 38007 ft | 460 kts | 319° |
| 2026-04-25 02:04 | -7.83448 | -55.04515 | 38009 ft | 460 kts | 319° |
| 2026-04-25 02:05 | -7.78706 | -55.08856 | 38006 ft | 460 kts | 319° |
| 2026-04-25 02:05 | -7.73998 | -55.13165 | 38008 ft | 460 kts | 319° |
| 2026-04-25 02:06 | -7.69258 | -55.17502 | 38013 ft | 460 kts | 319° |
| 2026-04-25 02:06 | -7.64525 | -55.21832 | 38005 ft | 460 kts | 319° |
| 2026-04-25 02:07 | -7.59788 | -55.26163 | 38010 ft | 459 kts | 319° |
| 2026-04-25 02:07 | -7.55088 | -55.30460 | 38005 ft | 459 kts | 319° |
| 2026-04-25 02:08 | -7.50359 | -55.34782 | 38006 ft | 459 kts | 319° |
| 2026-04-25 02:08 | -7.45623 | -55.39110 | 38003 ft | 460 kts | 319° |
| 2026-04-25 02:09 | -7.40877 | -55.43445 | 38011 ft | 461 kts | 319° |
| 2026-04-25 02:09 | -7.36164 | -55.47768 | 38013 ft | 462 kts | 319° |
| 2026-04-25 02:10 | -7.31411 | -55.52140 | 38013 ft | 463 kts | 319° |
| 2026-04-25 02:10 | -7.26635 | -55.56500 | 38012 ft | 464 kts | 320° |
| 2026-04-25 02:11 | -7.21736 | -55.60734 | 38005 ft | 464 kts | 321° |
| 2026-04-25 02:11 | -7.16839 | -55.64903 | 38005 ft | 465 kts | 321° |
| 2026-04-25 02:12 | -7.11913 | -55.69120 | 38010 ft | 465 kts | 321° |
| 2026-04-25 02:12 | -7.06995 | -55.73350 | 38003 ft | 465 kts | 321° |
| 2026-04-25 02:13 | -7.02077 | -55.77586 | 38000 ft | 465 kts | 321° |
| 2026-04-25 02:13 | -6.97162 | -55.81819 | 38012 ft | 465 kts | 321° |
| 2026-04-25 02:14 | -6.92285 | -55.86017 | 38006 ft | 465 kts | 321° |
| 2026-04-25 02:14 | -6.87374 | -55.90243 | 38008 ft | 464 kts | 321° |
| 2026-04-25 02:15 | -6.82468 | -55.94463 | 38008 ft | 464 kts | 321° |
| 2026-04-25 02:15 | -6.77561 | -55.98682 | 38001 ft | 464 kts | 321° |
| 2026-04-25 02:16 | -6.72696 | -56.02864 | 38004 ft | 463 kts | 321° |
| 2026-04-25 02:16 | -6.67794 | -56.07077 | 37998 ft | 463 kts | 321° |
| 2026-04-25 02:17 | -6.62895 | -56.11287 | 38003 ft | 463 kts | 321° |
| 2026-04-25 02:17 | -6.57995 | -56.15495 | 38012 ft | 463 kts | 321° |
| 2026-04-25 02:18 | -6.53131 | -56.19673 | 38010 ft | 463 kts | 321° |
| 2026-04-25 02:18 | -6.48233 | -56.23878 | 38006 ft | 463 kts | 322° |
| 2026-04-25 02:19 | -6.43331 | -56.28085 | 38002 ft | 463 kts | 321° |
| 2026-04-25 02:19 | -6.38430 | -56.32290 | 38002 ft | 463 kts | 321° |
| 2026-04-25 02:20 | -6.33529 | -56.36494 | 38007 ft | 463 kts | 321° |
| 2026-04-25 02:20 | -6.28648 | -56.40680 | 38004 ft | 465 kts | 321° |
| 2026-04-25 02:21 | -6.23724 | -56.44902 | 38003 ft | 466 kts | 321° |
| 2026-04-25 02:21 | -6.18784 | -56.49137 | 38003 ft | 468 kts | 321° |
| 2026-04-25 02:22 | -6.13830 | -56.53383 | 37993 ft | 469 kts | 321° |
| 2026-04-25 02:22 | -6.08892 | -56.57614 | 37989 ft | 470 kts | 321° |
| 2026-04-25 02:23 | -6.03914 | -56.61878 | 37997 ft | 471 kts | 321° |
| 2026-04-25 02:23 | -5.98923 | -56.66152 | 37999 ft | 472 kts | 321° |
| 2026-04-25 02:24 | -5.93922 | -56.70433 | 37998 ft | 472 kts | 321° |
| 2026-04-25 02:24 | -5.88953 | -56.74687 | 37984 ft | 473 kts | 321° |
| 2026-04-25 02:25 | -5.83950 | -56.78970 | 37985 ft | 473 kts | 321° |
| 2026-04-25 02:25 | -5.78947 | -56.83250 | 38002 ft | 472 kts | 321° |
| 2026-04-25 02:26 | -5.73949 | -56.87530 | 37992 ft | 472 kts | 321° |
| 2026-04-25 02:26 | -5.69043 | -56.91833 | 37988 ft | 471 kts | 320° |
| 2026-04-25 02:27 | -5.64130 | -56.96192 | 37995 ft | 471 kts | 320° |
| 2026-04-25 02:27 | -5.59217 | -57.00542 | 37989 ft | 471 kts | 320° |
| 2026-04-25 02:28 | -5.54306 | -57.04879 | 37991 ft | 471 kts | 320° |
| 2026-04-25 02:28 | -5.49389 | -57.09215 | 37980 ft | 471 kts | 320° |
| 2026-04-25 02:29 | -5.44500 | -57.13525 | 37984 ft | 471 kts | 320° |
| 2026-04-25 02:29 | -5.39578 | -57.17864 | 37979 ft | 471 kts | 321° |
| 2026-04-25 02:30 | -5.34658 | -57.22200 | 37996 ft | 471 kts | 321° |
| 2026-04-25 02:30 | -5.29733 | -57.26539 | 37989 ft | 471 kts | 321° |
| 2026-04-25 02:31 | -5.24840 | -57.30850 | 37980 ft | 471 kts | 321° |
| 2026-04-25 02:31 | -5.19912 | -57.35191 | 37989 ft | 472 kts | 321° |
| 2026-04-25 02:32 | -5.14978 | -57.39535 | 37984 ft | 472 kts | 321° |
| 2026-04-25 02:32 | -5.10048 | -57.43876 | 37985 ft | 472 kts | 321° |
| 2026-04-25 02:33 | -5.05112 | -57.48220 | 37982 ft | 472 kts | 321° |
| 2026-04-25 02:33 | -5.00215 | -57.52530 | 37985 ft | 472 kts | 321° |
| 2026-04-25 02:34 | -4.95284 | -57.56868 | 37997 ft | 471 kts | 321° |
| 2026-04-25 02:34 | -4.90353 | -57.61206 | 37978 ft | 471 kts | 321° |
| 2026-04-25 02:35 | -4.85429 | -57.65537 | 37989 ft | 471 kts | 321° |
| 2026-04-25 02:35 | -4.80540 | -57.69836 | 37994 ft | 470 kts | 321° |
| 2026-04-25 02:36 | -4.75617 | -57.74164 | 37977 ft | 470 kts | 321° |
| 2026-04-25 02:36 | -4.70704 | -57.78482 | 37988 ft | 470 kts | 321° |
| 2026-04-25 02:37 | -4.65794 | -57.82797 | 37984 ft | 469 kts | 321° |
| 2026-04-25 02:37 | -4.60918 | -57.87081 | 37977 ft | 469 kts | 321° |
| 2026-04-25 02:38 | -4.56008 | -57.91394 | 37984 ft | 469 kts | 321° |
| 2026-04-25 02:38 | -4.51108 | -57.95697 | 37981 ft | 468 kts | 321° |
| 2026-04-25 02:39 | -4.46208 | -58.00000 | 37982 ft | 468 kts | 321° |
| 2026-04-25 02:39 | -4.41342 | -58.04272 | 37983 ft | 468 kts | 321° |
| 2026-04-25 02:40 | -4.36452 | -58.08565 | 37971 ft | 467 kts | 321° |
| 2026-04-25 02:40 | -4.31564 | -58.12855 | 37979 ft | 467 kts | 321° |
| 2026-04-25 02:41 | -4.26678 | -58.17142 | 37984 ft | 467 kts | 321° |
| 2026-04-25 02:41 | -4.21821 | -58.21403 | 37975 ft | 467 kts | 321° |
| 2026-04-25 02:42 | -4.16919 | -58.25703 | 37505 ft | 474 kts | 321° |
| 2026-04-25 02:42 | -4.14439 | -58.27878 | 36989 ft | 472 kts | 321° |
| 2026-04-25 02:42 | -4.11975 | -58.30039 | 36413 ft | 471 kts | 321° |
| 2026-04-25 02:42 | -4.09508 | -58.32203 | 35842 ft | 471 kts | 321° |
| 2026-04-25 02:43 | -4.07045 | -58.34363 | 35263 ft | 471 kts | 321° |
| 2026-04-25 02:43 | -4.04594 | -58.36513 | 34838 ft | 467 kts | 321° |
| 2026-04-25 02:43 | -4.02157 | -58.38650 | 34373 ft | 464 kts | 321° |
| 2026-04-25 02:43 | -3.99767 | -58.40745 | 33937 ft | 462 kts | 321° |
| 2026-04-25 02:44 | -3.97355 | -58.42860 | 33428 ft | 459 kts | 321° |
| 2026-04-25 02:44 | -3.94964 | -58.44955 | 32976 ft | 455 kts | 321° |
| 2026-04-25 02:44 | -3.92586 | -58.47040 | 32534 ft | 452 kts | 321° |
| 2026-04-25 02:44 | -3.90233 | -58.49102 | 32102 ft | 448 kts | 321° |
| 2026-04-25 02:45 | -3.87895 | -58.51152 | 31669 ft | 445 kts | 321° |
| 2026-04-25 02:45 | -3.85572 | -58.53187 | 31244 ft | 442 kts | 321° |
| 2026-04-25 02:45 | -3.83261 | -58.55212 | 30829 ft | 440 kts | 321° |
| 2026-04-25 02:45 | -3.80997 | -58.57196 | 30389 ft | 438 kts | 321° |
| 2026-04-25 02:46 | -3.78712 | -58.59197 | 29960 ft | 435 kts | 321° |
| 2026-04-25 02:46 | -3.76597 | -58.61361 | 29443 ft | 436 kts | 310° |
| 2026-04-25 02:46 | -3.74883 | -58.63848 | 29003 ft | 434 kts | 301° |
| 2026-04-25 02:46 | -3.73590 | -58.66563 | 28536 ft | 432 kts | 292° |
| 2026-04-25 02:47 | -3.72530 | -58.69368 | 28113 ft | 428 kts | 292° |
| 2026-04-25 02:47 | -3.71494 | -58.72152 | 27674 ft | 426 kts | 292° |
| 2026-04-25 02:47 | -3.70463 | -58.74921 | 27235 ft | 423 kts | 292° |
| 2026-04-25 02:47 | -3.69449 | -58.77627 | 26821 ft | 420 kts | 292° |
| 2026-04-25 02:48 | -3.68420 | -58.80353 | 26400 ft | 417 kts | 292° |
| 2026-04-25 02:48 | -3.67391 | -58.83063 | 25977 ft | 415 kts | 292° |
| 2026-04-25 02:48 | -3.66367 | -58.85753 | 25538 ft | 413 kts | 292° |
| 2026-04-25 02:48 | -3.65343 | -58.88434 | 25116 ft | 411 kts | 292° |
| 2026-04-25 02:49 | -3.64322 | -58.91107 | 24681 ft | 410 kts | 292° |
| 2026-04-25 02:49 | -3.63305 | -58.93768 | 24261 ft | 409 kts | 292° |
| 2026-04-25 02:49 | -3.62292 | -58.96419 | 23839 ft | 407 kts | 292° |
| 2026-04-25 02:49 | -3.61281 | -58.99062 | 23380 ft | 406 kts | 292° |
| 2026-04-25 02:50 | -3.60287 | -59.01663 | 22932 ft | 404 kts | 292° |
| 2026-04-25 02:50 | -3.59286 | -59.04282 | 22500 ft | 401 kts | 292° |
| 2026-04-25 02:50 | -3.58294 | -59.06879 | 22077 ft | 398 kts | 292° |
| 2026-04-25 02:50 | -3.57309 | -59.09456 | 21664 ft | 395 kts | 292° |
| 2026-04-25 02:51 | -3.56330 | -59.12015 | 21254 ft | 392 kts | 292° |
| 2026-04-25 02:51 | -3.55359 | -59.14555 | 20852 ft | 389 kts | 292° |
| 2026-04-25 02:51 | -3.54395 | -59.17078 | 20452 ft | 387 kts | 292° |
| 2026-04-25 02:51 | -3.53436 | -59.19584 | 20051 ft | 384 kts | 292° |
| 2026-04-25 02:52 | -3.52482 | -59.22078 | 19649 ft | 383 kts | 292° |
| 2026-04-25 02:52 | -3.51533 | -59.24560 | 19239 ft | 381 kts | 292° |
| 2026-04-25 02:52 | -3.50601 | -59.26996 | 18841 ft | 379 kts | 292° |
| 2026-04-25 02:52 | -3.49659 | -59.29458 | 18443 ft | 378 kts | 292° |
| 2026-04-25 02:53 | -3.48723 | -59.31906 | 18003 ft | 376 kts | 292° |
| 2026-04-25 02:53 | -3.47790 | -59.34344 | 17583 ft | 373 kts | 292° |
| 2026-04-25 02:53 | -3.46864 | -59.36763 | 17187 ft | 371 kts | 292° |
| 2026-04-25 02:53 | -3.45947 | -59.39160 | 16793 ft | 368 kts | 292° |
| 2026-04-25 02:54 | -3.45035 | -59.41541 | 16405 ft | 365 kts | 292° |
| 2026-04-25 02:54 | -3.44132 | -59.43901 | 16022 ft | 362 kts | 292° |
| 2026-04-25 02:54 | -3.43235 | -59.46244 | 15641 ft | 359 kts | 292° |
| 2026-04-25 02:54 | -3.42357 | -59.48537 | 15264 ft | 357 kts | 292° |
| 2026-04-25 02:55 | -3.41472 | -59.50850 | 14898 ft | 355 kts | 292° |
| 2026-04-25 02:55 | -3.40591 | -59.53150 | 14517 ft | 353 kts | 292° |
| 2026-04-25 02:55 | -3.39716 | -59.55435 | 14146 ft | 351 kts | 292° |
| 2026-04-25 02:55 | -3.38845 | -59.57710 | 13755 ft | 350 kts | 292° |
| 2026-04-25 02:56 | -3.37978 | -59.59973 | 13351 ft | 347 kts | 291° |
| 2026-04-25 02:56 | -3.37117 | -59.62222 | 12955 ft | 345 kts | 291° |
| 2026-04-25 02:56 | -3.36264 | -59.64450 | 12587 ft | 342 kts | 291° |
| 2026-04-25 02:56 | -3.35417 | -59.66661 | 12221 ft | 339 kts | 291° |
| 2026-04-25 02:57 | -3.34588 | -59.68823 | 11893 ft | 335 kts | 291° |
| 2026-04-25 02:57 | -3.33760 | -59.70986 | 11514 ft | 333 kts | 291° |
| 2026-04-25 02:57 | -3.32933 | -59.73145 | 11160 ft | 331 kts | 291° |
| 2026-04-25 02:57 | -3.32112 | -59.75288 | 10806 ft | 329 kts | 291° |
| 2026-04-25 02:58 | -3.31297 | -59.77415 | 10450 ft | 327 kts | 291° |
| 2026-04-25 02:58 | -3.30492 | -59.79514 | 10280 ft | 318 kts | 291° |
| 2026-04-25 02:58 | -3.29711 | -59.81552 | 10131 ft | 310 kts | 291° |
| 2026-04-25 02:58 | -3.28951 | -59.83537 | 9993 ft | 301 kts | 291° |
| 2026-04-25 02:59 | -3.28222 | -59.85439 | 9921 ft | 290 kts | 291° |
| 2026-04-25 02:59 | -3.27494 | -59.87338 | 9427 ft | 295 kts | 291° |
| 2026-04-25 02:59 | -3.26754 | -59.89268 | 8867 ft | 298 kts | 291° |
| 2026-04-25 02:59 | -3.26016 | -59.91192 | 8486 ft | 294 kts | 291° |
| 2026-04-25 03:00 | -3.25287 | -59.93095 | 8094 ft | 291 kts | 291° |
| 2026-04-25 03:00 | -3.24565 | -59.94979 | 7709 ft | 288 kts | 291° |
| 2026-04-25 03:00 | -3.23854 | -59.96832 | 7432 ft | 282 kts | 292° |
| 2026-04-25 03:00 | -3.23161 | -59.98640 | 7155 ft | 275 kts | 292° |
| 2026-04-25 03:01 | -3.22482 | -60.00411 | 6898 ft | 270 kts | 292° |
| 2026-04-25 03:01 | -3.21815 | -60.02150 | 6644 ft | 265 kts | 292° |
| 2026-04-25 03:01 | -3.21170 | -60.03834 | 6386 ft | 261 kts | 292° |
| 2026-04-25 03:01 | -3.20525 | -60.05515 | 6111 ft | 257 kts | 292° |
| 2026-04-25 03:02 | -3.19893 | -60.07163 | 5892 ft | 251 kts | 292° |
| 2026-04-25 03:02 | -3.19272 | -60.08782 | 5633 ft | 248 kts | 292° |
| 2026-04-25 03:02 | -3.18658 | -60.10382 | 5368 ft | 245 kts | 292° |
| 2026-04-25 03:02 | -3.18049 | -60.11969 | 5109 ft | 245 kts | 292° |
| 2026-04-25 03:03 | -3.17438 | -60.13561 | 4850 ft | 245 kts | 292° |
| 2026-04-25 03:03 | -3.16836 | -60.15130 | 4587 ft | 245 kts | 292° |
| 2026-04-25 03:03 | -3.16226 | -60.16720 | 4318 ft | 245 kts | 292° |
| 2026-04-25 03:03 | -3.15615 | -60.18312 | 4053 ft | 245 kts | 292° |
| 2026-04-25 03:04 | -3.15003 | -60.19906 | 3796 ft | 245 kts | 292° |
| 2026-04-25 03:04 | -3.14350 | -60.21456 | 3623 ft | 239 kts | 303° |
| 2026-04-25 03:04 | -3.13159 | -60.22532 | 3452 ft | 229 kts | 339° |
| 2026-04-25 03:05 | -3.10137 | -60.22922 | 3179 ft | 217 kts | 2° |
| 2026-04-25 03:05 | -3.08646 | -60.22901 | 3050 ft | 211 kts | 2° |
| 2026-04-25 03:05 | -3.07242 | -60.22885 | 3017 ft | 198 kts | 2° |
| 2026-04-25 03:05 | -3.05875 | -60.22850 | 3005 ft | 195 kts | 10° |
| 2026-04-25 03:06 | -3.04704 | -60.22303 | 3004 ft | 181 kts | 45° |
| 2026-04-25 03:06 | -3.04027 | -60.21304 | 2998 ft | 172 kts | 70° |
| 2026-04-25 03:06 | -3.03819 | -60.20129 | 2891 ft | 175 kts | 88° |
| 2026-04-25 03:06 | -3.03818 | -60.18942 | 2692 ft | 164 kts | 90° |
| 2026-04-25 03:07 | -3.03828 | -60.17839 | 2460 ft | 152 kts | 90° |
| 2026-04-25 03:07 | -3.03833 | -60.16805 | 2279 ft | 145 kts | 89° |
| 2026-04-25 03:07 | -3.03836 | -60.15804 | 2081 ft | 142 kts | 90° |
| 2026-04-25 03:07 | -3.03838 | -60.14838 | 1916 ft | 140 kts | 89° |
| 2026-04-25 03:08 | -3.03840 | -60.13874 | 1732 ft | 141 kts | 90° |
| 2026-04-25 03:08 | -3.03842 | -60.12898 | 1548 ft | 141 kts | 90° |
| 2026-04-25 03:08 | -3.03844 | -60.11916 | 1364 ft | 141 kts | 90° |
| 2026-04-25 03:08 | -3.03846 | -60.10939 | 1200 ft | 140 kts | 90° |
| 2026-04-25 03:09 | -3.03841 | -60.09969 | 1045 ft | 140 kts | 90° |
| 2026-04-25 03:09 | -3.03851 | -60.08987 | 832 ft | 142 kts | 90° |
| 2026-04-25 03:09 | -3.03853 | -60.07989 | 663 ft | 144 kts | 90° |
| 2026-04-25 03:09 | -3.03858 | -60.06987 | 466 ft | 145 kts | 90° |
| 2026-04-25 03:10 | -3.03858 | -60.05984 | 284 ft | 142 kts | 90° |
| 2026-04-25 03:10 | -3.03860 | -60.05106 | 268 ft | 108 kts | 90° |
| 2026-04-25 03:10 | -3.03861 | -60.04542 | 270 ft | 68 kts | 90° |
| 2026-04-25 03:10 | -3.03862 | -60.04163 | 270 ft | 29 kts | 90° |
| 2026-04-25 03:11 | -3.03862 | -60.03969 | 269 ft | 27 kts | 90° |
| 2026-04-25 03:11 | -3.03862 | -60.03845 | 269 ft | 7 kts | 90° |
| 2026-04-25 03:11 | -3.03845 | -60.03798 | 269 ft | 8 kts | 52° |
| 2026-04-25 03:11 | -3.03791 | -60.03770 | 269 ft | 11 kts | 11° |
| 2026-04-25 03:12 | -3.03713 | -60.03795 | 269 ft | 13 kts | 316° |
| 2026-04-25 03:12 | -3.03678 | -60.03865 | 269 ft | 13 kts | 285° |
| 2026-04-25 03:12 | -3.03653 | -60.03955 | 269 ft | 15 kts | 285° |
| 2026-04-25 03:12 | -3.03625 | -60.04059 | 269 ft | 16 kts | 285° |
| 2026-04-25 03:13 | -3.03595 | -60.04172 | 269 ft | 16 kts | 285° |
| 2026-04-25 03:13 | -3.03550 | -60.04269 | 269 ft | 16 kts | 303° |
| 2026-04-25 03:13 | -3.03470 | -60.04341 | 269 ft | 14 kts | 328° |
| 2026-04-25 03:13 | -3.03391 | -60.04375 | 269 ft | 10 kts | 346° |
| 2026-04-25 03:14 | -3.03335 | -60.04402 | 269 ft | 9 kts | 299° |
| 2026-04-25 03:14 | -3.03340 | -60.04469 | 269 ft | 10 kts | 260° |
| 2026-04-25 03:14 | -3.03352 | -60.04542 | 269 ft | 12 kts | 262° |
| 2026-04-25 03:14 | -3.03355 | -60.04601 | 269 ft | 8 kts | 268° |
| 2026-04-25 03:15 | -3.03354 | -60.04656 | 269 ft | 6 kts | 276° |
| 2026-04-25 03:15 | -3.03339 | -60.04671 | 269 ft | 3 kts | 8° |
| 2026-04-25 03:15 | -3.03312 | -60.04668 | 269 ft | 5 kts | 4° |
| 2026-04-25 03:15 | -3.03283 | -60.04666 | 269 ft | 3 kts | 5° |
| 2026-04-25 03:16 | -3.03273 | -60.04665 | 269 ft | 0 kts | 5° |